createdAt,value
2022-07-25T00:00:27.485Z,20.40
2022-07-25T00:02:54.487Z,20.40
2022-07-25T00:05:21.974Z,20.40
2022-07-25T00:07:49.535Z,20.30
2022-07-25T00:10:16.943Z,20.30
2022-07-25T00:12:44.888Z,20.20
2022-07-25T00:15:12.115Z,20.20
2022-07-25T00:17:39.854Z,20.10
2022-07-25T00:20:08.690Z,20.10
2022-07-25T00:22:36.005Z,20.10
2022-07-25T00:25:03.299Z,20.10
2022-07-25T00:27:30.338Z,20.00
2022-07-25T00:29:57.375Z,20.00
2022-07-25T00:32:24.393Z,20.00
2022-07-25T00:34:51.515Z,19.90
2022-07-25T00:37:18.563Z,19.70
2022-07-25T00:39:45.536Z,19.70
2022-07-25T00:42:12.546Z,19.70
2022-07-25T00:44:39.614Z,19.70
2022-07-25T00:47:06.761Z,19.70
2022-07-25T00:49:33.781Z,19.70
2022-07-25T00:52:01.103Z,19.60
2022-07-25T00:54:29.276Z,19.70
2022-07-25T00:56:57.148Z,19.70
2022-07-25T00:59:24.214Z,19.60
2022-07-25T01:01:51.417Z,19.60
2022-07-25T01:04:18.587Z,19.60
2022-07-25T01:06:46.093Z,19.50
2022-07-25T01:09:13.510Z,19.50
2022-07-25T01:11:40.527Z,19.50
2022-07-25T01:14:07.883Z,19.50
2022-07-25T01:16:35.338Z,19.50
2022-07-25T01:19:02.359Z,19.40
2022-07-25T01:21:29.639Z,19.40
2022-07-25T01:23:56.673Z,19.40
2022-07-25T01:26:23.835Z,19.40
2022-07-25T01:28:50.876Z,19.40
2022-07-25T01:31:18.136Z,19.30
2022-07-25T01:33:45.217Z,19.30
2022-07-25T01:36:12.422Z,19.20
2022-07-25T01:38:39.623Z,19.20
2022-07-25T01:41:06.943Z,19.10
2022-07-25T01:43:34.284Z,19.10
2022-07-25T01:46:01.444Z,19.10
2022-07-25T01:48:29.328Z,19.00
2022-07-25T01:50:56.401Z,18.90
2022-07-25T01:53:24.313Z,18.90
2022-07-25T01:55:52.713Z,18.90
2022-07-25T01:58:21.540Z,18.90
2022-07-25T02:00:48.935Z,18.90
2022-07-25T02:03:31.112Z,18.90
2022-07-25T02:06:08.304Z,18.90
2022-07-25T02:08:35.893Z,18.90
2022-07-25T02:11:03.032Z,18.90
2022-07-25T02:13:29.977Z,18.90
2022-07-25T02:15:57.347Z,18.90
2022-07-25T02:18:24.558Z,18.80
2022-07-25T02:20:51.575Z,18.80
2022-07-25T02:23:18.752Z,18.70
2022-07-25T02:25:45.901Z,18.60
2022-07-25T02:28:12.899Z,18.50
2022-07-25T02:30:39.967Z,18.40
2022-07-25T02:33:07.128Z,18.40
2022-07-25T02:35:34.145Z,18.40
2022-07-25T02:38:01.513Z,18.20
2022-07-25T02:40:28.632Z,18.30
2022-07-25T02:42:55.642Z,18.30
2022-07-25T02:45:22.870Z,18.40
2022-07-25T02:47:50.280Z,18.40
2022-07-25T02:50:17.860Z,18.20
2022-07-25T02:52:44.874Z,18.20
2022-07-25T02:55:12.342Z,18.20
2022-07-25T02:57:39.589Z,18.10
2022-07-25T03:00:08.417Z,18.20
2022-07-25T03:02:36.212Z,18.10
2022-07-25T03:05:08.224Z,18.10
2022-07-25T03:07:36.330Z,18.20
2022-07-25T03:10:08.907Z,18.30
2022-07-25T03:12:40.241Z,18.30
2022-07-25T03:15:08.827Z,18.30
2022-07-25T03:17:36.351Z,18.10
2022-07-25T03:20:05.421Z,18.10
2022-07-25T03:22:32.595Z,18.10
2022-07-25T03:24:59.694Z,18.20
2022-07-25T03:27:27.059Z,18.20
2022-07-25T03:29:54.492Z,18.30
2022-07-25T03:32:21.499Z,18.20
2022-07-25T03:34:48.481Z,18.20
2022-07-25T03:37:15.522Z,18.10
2022-07-25T03:39:42.557Z,18.10
2022-07-25T03:42:09.636Z,18.10
2022-07-25T03:44:38.011Z,18.00
2022-07-25T03:47:05.919Z,18.00
2022-07-25T03:49:33.101Z,18.00
2022-07-25T03:52:00.745Z,17.90
2022-07-25T03:59:22.813Z,17.80
2022-07-25T04:01:51.325Z,17.80
2022-07-25T04:04:19.596Z,17.80
2022-07-25T04:06:47.512Z,17.80
2022-07-25T04:09:15.783Z,17.70
2022-07-25T04:11:43.389Z,17.70
2022-07-25T04:14:10.701Z,17.80
2022-07-25T04:16:38.030Z,17.90
2022-07-25T04:19:07.562Z,18.00
2022-07-25T04:21:35.805Z,18.00
2022-07-25T04:24:02.890Z,18.10
2022-07-25T04:26:30.110Z,18.10
2022-07-25T04:28:58.706Z,18.20
2022-07-25T04:31:26.166Z,18.20
2022-07-25T04:33:53.343Z,18.30
2022-07-25T04:36:20.509Z,18.30
2022-07-25T04:38:47.598Z,18.30
2022-07-25T04:41:14.648Z,18.30
2022-07-25T04:43:46.299Z,18.40
2022-07-25T04:46:20.239Z,18.40
2022-07-25T04:48:47.637Z,18.50
2022-07-25T04:51:16.171Z,18.50
2022-07-25T04:53:43.246Z,18.50
2022-07-25T04:56:10.462Z,18.60
2022-07-25T04:58:37.812Z,18.70
2022-07-25T05:01:05.354Z,18.70
2022-07-25T05:03:32.350Z,18.80
2022-07-25T05:05:59.373Z,18.80
2022-07-25T05:08:26.356Z,18.90
2022-07-25T05:10:54.064Z,19.00
2022-07-25T05:13:21.203Z,19.10
2022-07-25T05:15:48.181Z,19.40
2022-07-25T05:18:15.456Z,19.70
2022-07-25T05:20:42.450Z,20.10
2022-07-25T05:23:09.569Z,21.00
2022-07-25T05:25:36.558Z,22.40
2022-07-25T05:28:03.663Z,23.60
2022-07-25T05:30:30.705Z,24.80
2022-07-25T05:32:57.755Z,25.70
2022-07-25T05:35:25.016Z,26.50
2022-07-25T05:37:51.994Z,27.20
2022-07-25T05:40:19.469Z,28.20
2022-07-25T05:42:46.458Z,29.10
2022-07-25T05:45:13.469Z,29.80
2022-07-25T05:47:40.620Z,30.30
2022-07-25T05:50:08.655Z,30.50
2022-07-25T05:52:35.656Z,30.70
2022-07-25T05:55:02.653Z,30.50
2022-07-25T05:57:29.662Z,30.50
2022-07-25T05:59:56.669Z,30.80
2022-07-25T06:02:23.842Z,31.00
2022-07-25T06:04:50.965Z,30.90
2022-07-25T06:07:18.282Z,30.90
2022-07-25T06:09:45.322Z,31.00
2022-07-25T06:12:13.999Z,31.20
2022-07-25T06:14:41.145Z,31.40
2022-07-25T06:17:08.232Z,31.80
2022-07-25T06:19:35.215Z,32.40
2022-07-25T06:22:02.260Z,33.00
2022-07-25T06:24:29.316Z,33.40
2022-07-25T06:26:56.302Z,33.70
2022-07-25T06:29:23.264Z,34.30
2022-07-25T06:31:50.460Z,34.70
2022-07-25T06:34:17.712Z,35.00
2022-07-25T06:36:44.727Z,34.80
2022-07-25T06:39:11.753Z,35.00
2022-07-25T06:41:38.776Z,35.20
2022-07-25T06:44:06.106Z,35.10
2022-07-25T06:46:33.394Z,35.10
2022-07-25T06:49:00.617Z,34.80
2022-07-25T06:51:27.718Z,34.70
2022-07-25T06:53:54.751Z,34.50
2022-07-25T06:56:21.845Z,34.70
2022-07-25T06:58:48.928Z,35.00
2022-07-25T07:01:16.175Z,35.20
2022-07-25T07:03:43.738Z,34.80
2022-07-25T07:06:11.164Z,34.60
2022-07-25T07:08:38.251Z,35.00
2022-07-25T07:11:06.427Z,35.00
2022-07-25T07:13:34.450Z,35.20
2022-07-25T07:16:02.208Z,34.90
2022-07-25T07:18:29.334Z,34.40
2022-07-25T07:20:56.379Z,34.20
2022-07-25T07:23:24.588Z,34.10
2022-07-25T07:25:51.957Z,34.40
2022-07-25T07:28:19.524Z,34.20
2022-07-25T07:33:34.046Z,34.00
2022-07-25T07:36:02.481Z,34.60
2022-07-25T07:38:29.714Z,34.90
2022-07-25T07:40:56.806Z,34.70
2022-07-25T07:43:29.187Z,34.50
2022-07-25T07:46:00.704Z,34.50
2022-07-25T07:48:32.190Z,34.30
2022-07-25T07:51:01.190Z,34.10
2022-07-25T07:53:47.330Z,34.20
2022-07-25T07:56:15.857Z,34.20
2022-07-25T07:58:43.543Z,34.10
2022-07-25T08:01:11.418Z,34.00
2022-07-25T08:03:38.383Z,33.40
2022-07-25T08:06:05.765Z,33.50
2022-07-25T08:08:32.740Z,34.10
2022-07-25T08:11:00.170Z,34.40
2022-07-25T08:13:33.962Z,34.60
2022-07-25T08:16:03.709Z,34.50
2022-07-25T08:18:34.673Z,34.60
2022-07-25T08:21:05.976Z,34.50
2022-07-25T08:23:38.953Z,34.20
2022-07-25T08:26:06.870Z,34.70
2022-07-25T08:28:33.984Z,35.10
2022-07-25T08:31:01.073Z,35.30
2022-07-25T08:33:28.942Z,35.40
2022-07-25T08:35:58.777Z,35.00
2022-07-25T08:38:27.639Z,35.10
2022-07-25T08:40:56.799Z,35.20
2022-07-25T08:43:24.226Z,35.40
2022-07-25T08:45:53.746Z,35.50
2022-07-25T08:48:26.046Z,35.90
2022-07-25T08:50:57.066Z,36.20
2022-07-25T08:53:34.287Z,36.50
2022-07-25T08:56:11.574Z,37.30
2022-07-25T08:58:41.555Z,37.20
2022-07-25T09:01:09.261Z,36.80
2022-07-25T09:03:36.616Z,36.90
2022-07-25T09:06:21.491Z,36.30
2022-07-25T09:08:57.643Z,36.20
2022-07-25T09:11:36.786Z,36.60
2022-07-25T09:14:08.390Z,37.30
2022-07-25T09:16:44.222Z,37.30
2022-07-25T09:19:15.726Z,37.60
2022-07-25T09:47:10.180Z,39.10
2022-07-25T09:49:45.298Z,38.80
2022-07-25T09:52:12.904Z,38.90
2022-07-25T09:54:40.960Z,39.10
2022-07-25T09:57:07.996Z,39.50
2022-07-25T09:59:36.013Z,39.80
2022-07-25T10:02:12.249Z,40.10
2022-07-25T10:04:56.968Z,40.60
2022-07-25T10:07:29.438Z,40.60
2022-07-25T10:09:59.731Z,40.30
2022-07-25T10:12:26.822Z,40.90
2022-07-25T10:15:10.020Z,41.40
2022-07-25T10:17:38.994Z,41.10
2022-07-25T10:20:10.061Z,41.30
2022-07-25T10:22:58.668Z,41.00
2022-07-25T10:25:25.965Z,41.40
2022-07-25T10:28:04.049Z,41.90
2022-07-25T10:30:37.111Z,42.50
2022-07-25T10:33:12.531Z,42.60
2022-07-25T10:35:40.030Z,42.70
2022-07-25T10:38:08.618Z,42.90
2022-07-25T10:40:43.907Z,43.20
2022-07-25T10:43:19.066Z,43.40
2022-07-25T10:45:51.272Z,42.90
2022-07-25T10:48:32.904Z,42.30
2022-07-25T10:51:27.381Z,41.10
2022-07-25T10:53:54.562Z,40.50
2022-07-25T10:56:25.863Z,40.80
2022-07-25T10:58:59.410Z,40.70
2022-07-25T11:01:36.499Z,40.70
2022-07-25T11:04:14.967Z,40.80
2022-07-25T11:06:43.258Z,40.50
2022-07-25T11:09:27.608Z,40.70
2022-07-25T11:11:58.526Z,40.50
2022-07-25T11:14:33.857Z,39.80
2022-07-25T11:17:23.989Z,40.20
2022-07-25T11:20:09.680Z,40.70
2022-07-25T11:22:36.707Z,41.40
2022-07-25T11:25:12.813Z,41.90
2022-07-25T11:30:15.868Z,43.10
2022-07-25T11:32:54.069Z,43.30
2022-07-25T11:35:40.542Z,43.10
2022-07-25T11:38:08.079Z,43.40
2022-07-25T11:40:44.116Z,42.80
2022-07-25T11:43:23.436Z,42.20
2022-07-25T11:46:07.376Z,41.80
2022-07-25T11:48:39.274Z,40.80
2022-07-25T11:51:19.426Z,40.80
2022-07-25T11:53:50.097Z,40.00
2022-07-25T11:56:41.995Z,39.70
2022-07-25T11:59:10.282Z,39.30
2022-07-25T12:01:41.816Z,39.90
2022-07-25T12:04:19.777Z,40.50
2022-07-25T12:06:48.946Z,40.10
2022-07-25T12:09:21.651Z,40.40
2022-07-25T12:11:49.850Z,41.00
2022-07-25T12:14:17.335Z,40.70
2022-07-25T12:16:44.615Z,40.80
2022-07-25T12:19:21.410Z,40.70
2022-07-25T12:21:48.457Z,41.50
2022-07-25T12:24:15.528Z,42.20
2022-07-25T12:26:42.644Z,42.00
2022-07-25T12:29:10.105Z,41.40
2022-07-25T12:31:37.466Z,40.90
2022-07-25T12:34:04.490Z,41.10
2022-07-25T12:36:31.637Z,41.10
2022-07-25T12:38:58.638Z,41.20
2022-07-25T12:41:25.853Z,41.40
2022-07-25T12:43:52.825Z,41.40
2022-07-25T12:46:19.905Z,41.70
2022-07-25T12:48:47.427Z,41.60
2022-07-25T12:51:14.452Z,41.50
2022-07-25T12:53:42.629Z,42.10
2022-07-25T12:56:10.064Z,42.30
2022-07-25T12:58:37.494Z,42.50
2022-07-25T13:01:06.101Z,42.10
2022-07-25T13:03:33.424Z,42.30
2022-07-25T13:06:00.486Z,42.10
2022-07-25T13:08:27.566Z,41.60
2022-07-25T13:10:54.579Z,40.70
2022-07-25T13:13:21.805Z,40.00
2022-07-25T13:15:48.866Z,39.30
2022-07-25T13:18:15.960Z,38.80
2022-07-25T13:20:42.998Z,38.50
2022-07-25T13:23:09.993Z,38.30
2022-07-25T13:25:37.098Z,38.00
2022-07-25T13:28:09.629Z,37.80
2022-07-25T13:30:38.470Z,37.50
2022-07-25T13:33:05.440Z,37.50
2022-07-25T13:35:38.894Z,37.40
2022-07-25T13:38:11.035Z,37.10
2022-07-25T13:40:42.007Z,36.90
2022-07-25T13:43:11.531Z,36.80
2022-07-25T13:45:39.964Z,36.90
2022-07-25T13:50:55.865Z,36.60
2022-07-25T13:53:26.653Z,36.30
2022-07-25T13:55:58.365Z,36.20
2022-07-25T13:58:26.022Z,36.10
2022-07-25T14:00:53.274Z,35.90
2022-07-25T14:03:20.825Z,36.00
2022-07-25T14:05:48.306Z,36.30
2022-07-25T14:08:15.539Z,36.60
2022-07-25T14:10:42.622Z,36.60
2022-07-25T14:13:09.782Z,36.90
2022-07-25T14:15:38.314Z,37.10
2022-07-25T14:18:05.749Z,37.10
2022-07-25T14:20:33.468Z,37.00
2022-07-25T14:23:00.820Z,36.70
2022-07-25T14:25:27.892Z,36.40
2022-07-25T14:27:54.984Z,36.20
2022-07-25T14:30:22.205Z,35.90
2022-07-25T14:32:49.256Z,35.40
2022-07-25T14:35:16.349Z,35.20
2022-07-25T14:37:43.414Z,35.20
2022-07-25T14:40:12.442Z,35.00
2022-07-25T14:42:41.841Z,35.00
2022-07-25T14:45:09.985Z,34.90
2022-07-25T14:47:39.106Z,35.10
2022-07-25T14:50:06.668Z,35.20
2022-07-25T14:52:33.766Z,35.20
2022-07-25T14:55:01.151Z,35.00
2022-07-25T14:57:28.762Z,34.90
2022-07-25T14:59:55.924Z,34.90
2022-07-25T15:02:22.925Z,34.80
2022-07-25T15:04:49.971Z,34.90
2022-07-25T15:07:17.032Z,34.80
2022-07-25T15:09:44.083Z,34.60
2022-07-25T15:12:16.145Z,34.60
2022-07-25T15:14:43.854Z,34.50
2022-07-25T15:17:10.892Z,34.50
2022-07-25T15:19:37.916Z,34.40
2022-07-25T15:22:05.076Z,34.40
2022-07-25T15:24:50.182Z,34.40
2022-07-25T15:27:19.059Z,34.30
2022-07-25T15:29:46.103Z,34.30
2022-07-25T15:32:13.106Z,34.30
2022-07-25T15:34:40.210Z,34.30
2022-07-25T15:37:07.226Z,34.30
2022-07-25T15:39:34.281Z,34.20
2022-07-25T15:42:01.683Z,34.20
2022-07-25T15:44:28.705Z,34.20
2022-07-25T15:46:56.793Z,34.20
2022-07-25T15:49:24.071Z,34.20
2022-07-25T15:51:51.071Z,34.30
2022-07-25T15:54:18.038Z,34.20
2022-07-25T15:56:45.089Z,34.10
2022-07-25T15:59:13.276Z,34.00
2022-07-25T16:01:40.470Z,33.90
2022-07-25T16:04:08.088Z,33.70
2022-07-25T16:06:35.419Z,33.40
2022-07-25T16:09:02.585Z,33.20
2022-07-25T16:11:29.664Z,32.90
2022-07-25T16:13:56.669Z,32.70
2022-07-25T16:16:25.619Z,32.50
2022-07-25T16:18:52.788Z,32.40
2022-07-25T16:21:19.854Z,32.20
2022-07-25T16:23:47.020Z,32.20
2022-07-25T16:26:14.102Z,32.20
2022-07-25T16:28:41.186Z,32.20
2022-07-25T16:31:08.254Z,32.30
2022-07-25T16:33:35.252Z,32.40
2022-07-25T16:36:02.326Z,32.40
2022-07-25T16:38:30.034Z,32.20
2022-07-25T16:40:57.094Z,32.00
2022-07-25T16:43:24.068Z,31.90
2022-07-25T16:45:51.446Z,31.90
2022-07-25T16:48:18.470Z,31.90
2022-07-25T16:50:47.627Z,31.90
2022-07-25T16:53:14.707Z,31.90
2022-07-25T16:55:41.699Z,31.90
2022-07-25T16:58:08.656Z,31.90
2022-07-25T17:00:35.650Z,31.80
2022-07-25T17:03:02.679Z,31.70
2022-07-25T17:05:30.383Z,31.60
2022-07-25T17:07:59.752Z,31.50
2022-07-25T17:10:28.047Z,31.50
2022-07-25T17:12:55.058Z,31.60
2022-07-25T17:15:22.020Z,31.70
2022-07-25T17:17:50.229Z,31.80
2022-07-25T17:20:18.530Z,31.80
2022-07-25T17:22:45.542Z,31.80
2022-07-25T17:25:12.573Z,31.90
2022-07-25T17:27:39.627Z,32.00
2022-07-25T17:30:07.540Z,32.00
2022-07-25T17:32:34.621Z,32.00
2022-07-25T17:35:01.744Z,32.00
2022-07-25T17:37:28.750Z,31.90
2022-07-25T17:39:55.994Z,31.80
2022-07-25T17:42:23.902Z,31.80
2022-07-25T17:44:52.041Z,31.70
2022-07-25T17:47:19.718Z,31.60
2022-07-25T17:49:46.787Z,31.50
2022-07-25T17:52:15.557Z,31.40
2022-07-25T17:54:42.775Z,31.30
2022-07-25T17:57:10.564Z,31.30
2022-07-25T17:59:37.605Z,31.20
2022-07-25T18:02:05.446Z,31.20
2022-07-25T18:04:32.573Z,31.20
2022-07-25T18:06:59.595Z,31.20
2022-07-25T18:09:26.621Z,31.10
2022-07-25T18:11:54.843Z,31.00
2022-07-25T18:14:22.118Z,30.90
2022-07-25T18:16:49.245Z,30.80
2022-07-25T18:19:16.274Z,30.70
2022-07-25T18:21:44.944Z,30.60
2022-07-25T18:24:12.309Z,30.50
2022-07-25T18:26:40.479Z,30.40
2022-07-25T18:29:08.739Z,30.30
2022-07-25T18:31:36.622Z,30.20
2022-07-25T18:34:04.509Z,30.10
2022-07-25T18:36:32.421Z,30.00
2022-07-25T18:38:59.410Z,29.90
2022-07-25T18:41:29.670Z,29.70
2022-07-25T18:43:57.082Z,29.60
2022-07-25T18:46:24.213Z,29.50
2022-07-25T18:48:51.839Z,29.30
2022-07-25T18:51:19.516Z,29.30
2022-07-25T18:53:48.527Z,29.20
2022-07-25T18:56:16.595Z,29.10
2022-07-25T18:58:43.974Z,28.90
2022-07-25T19:01:11.661Z,28.90
2022-07-25T19:03:40.097Z,28.80
2022-07-25T19:06:10.008Z,28.70
2022-07-25T19:08:37.759Z,28.50
2022-07-25T19:11:04.998Z,28.30
2022-07-25T19:13:48.759Z,28.30
2022-07-25T19:16:16.490Z,28.20
2022-07-25T19:18:43.931Z,28.00
2022-07-25T19:21:11.193Z,28.00
2022-07-25T19:23:38.441Z,27.90
2022-07-25T19:26:06.221Z,27.80
2022-07-25T19:28:33.724Z,27.80
2022-07-25T19:31:00.797Z,27.70
2022-07-25T19:33:36.095Z,27.60
2022-07-25T19:36:04.279Z,27.50
2022-07-25T19:38:31.778Z,27.40
2022-07-25T19:40:59.329Z,27.30
2022-07-25T19:43:26.430Z,27.30
2022-07-25T19:48:23.902Z,27.10
2022-07-25T19:50:52.454Z,27.00
2022-07-25T19:53:19.557Z,26.90
2022-07-25T19:55:46.510Z,26.80
2022-07-25T19:58:13.541Z,26.80
2022-07-25T20:00:40.848Z,26.70
2022-07-25T20:03:07.963Z,26.60
2022-07-25T20:05:35.281Z,26.60
2022-07-25T20:08:02.219Z,26.60
2022-07-25T20:10:30.458Z,26.50
2022-07-25T20:13:01.402Z,26.40
2022-07-25T20:15:29.088Z,26.40
2022-07-25T20:17:56.865Z,26.30
2022-07-25T20:20:25.203Z,26.30
2022-07-25T20:22:52.920Z,26.20
2022-07-25T20:25:20.148Z,26.20
2022-07-25T20:27:49.636Z,26.20
2022-07-25T20:30:17.813Z,26.00
2022-07-25T20:32:44.936Z,26.00
2022-07-25T20:35:12.000Z,25.90
2022-07-25T20:37:39.157Z,25.90
2022-07-25T20:40:08.659Z,25.90
2022-07-25T20:42:37.860Z,25.80
2022-07-25T20:45:07.118Z,25.70
2022-07-25T20:47:34.328Z,25.60
2022-07-25T20:50:01.876Z,25.60
2022-07-25T20:52:30.247Z,25.50
2022-07-25T20:54:57.318Z,25.50
2022-07-25T20:57:24.572Z,25.40
2022-07-25T20:59:51.574Z,25.40
2022-07-25T21:02:18.921Z,25.20
2022-07-25T21:04:48.354Z,25.20
2022-07-25T21:07:17.274Z,25.10
2022-07-25T21:09:44.911Z,25.10
2022-07-25T21:12:11.910Z,25.00
2022-07-25T21:14:38.912Z,25.00
2022-07-25T21:17:05.945Z,24.90
2022-07-25T21:19:33.081Z,24.80
2022-07-25T21:22:00.125Z,24.80
2022-07-25T21:24:27.290Z,24.70
2022-07-25T21:26:54.302Z,24.60
2022-07-25T21:29:21.349Z,24.50
2022-07-25T21:31:48.901Z,24.40
2022-07-25T21:34:16.081Z,24.30
2022-07-25T21:36:43.055Z,24.30
2022-07-25T21:39:10.465Z,24.20
2022-07-25T21:41:37.822Z,24.20
2022-07-25T21:44:05.509Z,24.00
2022-07-25T21:46:32.706Z,24.00
2022-07-25T21:49:18.214Z,24.00
2022-07-25T21:52:05.649Z,23.90
2022-07-25T21:54:33.357Z,23.80
2022-07-25T21:57:00.330Z,23.80
2022-07-25T21:59:27.294Z,23.80
2022-07-25T22:01:54.345Z,23.80
2022-07-25T22:04:21.797Z,23.80
2022-07-25T22:06:48.798Z,23.80
2022-07-25T22:09:15.830Z,23.70
2022-07-25T22:11:46.359Z,23.70
2022-07-25T22:14:15.339Z,23.80
2022-07-25T22:16:43.033Z,23.80
2022-07-25T22:19:10.451Z,23.70
2022-07-25T22:21:39.448Z,23.70
2022-07-25T22:24:07.697Z,23.70
2022-07-25T22:26:35.311Z,23.60
2022-07-25T22:31:30.526Z,23.50
2022-07-25T22:33:57.653Z,23.30
2022-07-25T22:36:24.695Z,23.30
2022-07-25T22:38:51.702Z,23.20
2022-07-25T22:41:18.807Z,23.20
2022-07-25T22:43:57.278Z,23.00
2022-07-25T22:46:28.656Z,23.00
2022-07-25T22:48:57.492Z,22.90
2022-07-25T22:51:25.001Z,22.80
2022-07-25T22:53:52.073Z,22.80
2022-07-25T22:56:20.108Z,22.60
2022-07-25T22:58:48.863Z,22.40
2022-07-25T23:01:17.936Z,22.20
2022-07-25T23:03:46.302Z,22.20
2022-07-25T23:06:13.579Z,22.20
2022-07-25T23:08:41.014Z,22.20
2022-07-25T23:11:08.659Z,22.30
2022-07-25T23:13:36.658Z,22.30
2022-07-25T23:16:05.177Z,22.30
2022-07-25T23:18:38.260Z,22.30
2022-07-25T23:21:06.147Z,22.30
2022-07-25T23:23:33.185Z,22.20
2022-07-25T23:26:00.306Z,22.20
2022-07-25T23:28:27.577Z,22.10
2022-07-25T23:30:55.668Z,22.00
2022-07-25T23:33:25.662Z,22.00
2022-07-25T23:35:54.059Z,22.00
2022-07-25T23:38:22.271Z,21.70
2022-07-25T23:40:49.976Z,21.60
2022-07-25T23:43:55.666Z,21.60
2022-07-25T23:46:05.368Z,21.60
2022-07-25T23:48:34.541Z,21.60
2022-07-25T23:51:01.602Z,21.60
2022-07-25T23:53:28.649Z,21.60
2022-07-25T23:55:55.748Z,21.60
2022-07-25T23:58:22.749Z,21.60
